createdAt,value
2022-10-30T00:01:03.866Z,14.60
2022-10-30T00:03:30.796Z,14.60
2022-10-30T00:13:22.719Z,14.70
2022-10-30T00:15:54.083Z,14.70
2022-10-30T00:18:21.207Z,14.60
2022-10-30T00:20:48.738Z,14.60
2022-10-30T00:23:15.801Z,14.70
2022-10-30T00:25:42.650Z,14.80
2022-10-30T00:28:09.401Z,14.70
2022-10-30T00:30:36.860Z,14.80
2022-10-30T00:33:04.543Z,14.80
2022-10-30T00:35:31.935Z,14.80
2022-10-30T00:38:00.890Z,14.80
2022-10-30T00:40:28.350Z,14.80
2022-10-30T00:45:22.384Z,14.80
2022-10-30T00:47:52.280Z,14.80
2022-10-30T00:53:05.359Z,14.60
2022-10-30T00:55:35.438Z,14.60
2022-10-30T00:58:07.750Z,14.80
2022-10-30T01:00:37.054Z,14.60
2022-10-30T01:03:05.184Z,14.60
2022-10-30T01:05:33.679Z,14.60
2022-10-30T01:10:28.333Z,14.70
2022-10-30T01:12:58.508Z,14.70
2022-10-30T01:15:35.760Z,14.70
2022-10-30T01:18:25.674Z,14.50
2022-10-30T01:21:11.930Z,14.50
2022-10-30T01:23:59.970Z,14.50
2022-10-30T01:26:30.275Z,14.40
2022-10-30T01:29:02.871Z,14.40
2022-10-30T01:31:44.073Z,14.40
2022-10-30T01:34:32.074Z,14.50
2022-10-30T01:37:03.763Z,14.50
2022-10-30T01:39:35.708Z,14.50
2022-10-30T01:42:28.083Z,14.70
2022-10-30T01:44:54.917Z,14.70
2022-10-30T01:47:42.256Z,14.60
2022-10-30T01:50:24.439Z,14.60
2022-10-30T01:53:13.797Z,14.60
2022-10-30T01:55:46.397Z,14.50
2022-10-30T01:58:18.959Z,14.50
2022-10-30T02:00:52.641Z,14.50
2022-10-30T02:03:19.831Z,14.70
2022-10-30T02:05:50.513Z,14.50
2022-10-30T02:08:17.899Z,14.40
2022-10-30T02:10:47.807Z,14.40
2022-10-30T02:13:14.880Z,14.40
2022-10-30T02:15:42.873Z,14.50
2022-10-30T02:18:09.649Z,14.60
2022-10-30T02:20:37.494Z,14.30
2022-10-30T02:25:32.534Z,14.30
2022-10-30T02:27:59.814Z,14.30
2022-10-30T02:30:26.997Z,14.50
2022-10-30T02:35:20.953Z,14.40
2022-10-30T02:37:49.015Z,14.30
2022-10-30T02:40:15.819Z,14.30
2022-10-30T02:45:10.228Z,14.30
2022-10-30T02:47:37.035Z,14.40
2022-10-30T02:50:04.133Z,14.40
2022-10-30T02:52:31.129Z,14.50
2022-10-30T02:54:57.869Z,14.50
2022-10-30T02:57:24.679Z,14.50
2022-10-30T02:59:51.404Z,14.50
2022-10-30T03:02:18.191Z,14.50
2022-10-30T03:04:44.954Z,14.50
2022-10-30T03:09:39.698Z,14.40
2022-10-30T03:12:06.710Z,14.50
2022-10-30T03:14:33.495Z,14.50
2022-10-30T03:17:00.224Z,14.40
2022-10-30T03:21:54.532Z,14.30
2022-10-30T03:24:21.349Z,14.30
2022-10-30T03:26:48.301Z,14.40
2022-10-30T03:31:42.249Z,14.30
2022-10-30T03:34:08.977Z,14.40
2022-10-30T03:36:35.898Z,14.40
2022-10-30T03:41:29.901Z,14.30
2022-10-30T03:43:56.602Z,14.30
2022-10-30T03:51:17.814Z,14.40
2022-10-30T03:53:44.550Z,14.30
2022-10-30T03:56:11.434Z,14.30
2022-10-30T04:01:06.995Z,14.20
2022-10-30T04:03:34.376Z,14.20
2022-10-30T04:06:01.292Z,14.10
2022-10-30T04:08:28.146Z,14.10
2022-10-30T04:10:55.049Z,14.00
2022-10-30T04:15:55.992Z,14.10
2022-10-30T04:18:24.697Z,13.90
2022-10-30T04:23:19.929Z,13.70
2022-10-30T04:25:47.323Z,13.60
2022-10-30T04:28:14.303Z,13.60
2022-10-30T04:30:41.191Z,13.80
2022-10-30T04:33:12.219Z,13.90
2022-10-30T04:35:39.932Z,14.10
2022-10-30T04:38:11.949Z,14.10
2022-10-30T04:40:40.548Z,14.00
2022-10-30T04:43:08.400Z,14.00
2022-10-30T04:45:35.997Z,14.00
2022-10-30T04:48:15.062Z,14.00
2022-10-30T04:50:43.377Z,14.10
2022-10-30T04:53:17.763Z,14.10
2022-10-30T04:55:45.041Z,14.00
2022-10-30T04:58:12.792Z,14.10
2022-10-30T05:08:01.335Z,14.10
2022-10-30T05:10:28.435Z,14.20
2022-10-30T05:15:22.420Z,14.00
2022-10-30T05:17:56.411Z,13.90
2022-10-30T05:22:58.709Z,13.70
2022-10-30T05:25:26.514Z,13.70
2022-10-30T05:28:04.519Z,13.80
2022-10-30T05:30:33.063Z,13.70
2022-10-30T05:33:08.008Z,13.70
2022-10-30T05:35:35.692Z,13.70
2022-10-30T05:38:05.682Z,13.70
2022-10-30T05:40:33.871Z,13.50
2022-10-30T05:45:28.393Z,13.50
2022-10-30T05:48:06.681Z,13.60
2022-10-30T05:50:34.295Z,13.60
2022-10-30T05:53:03.839Z,13.50
2022-10-30T05:55:30.880Z,13.30
2022-10-30T05:57:59.528Z,13.40
2022-10-30T06:00:28.633Z,13.10
2022-10-30T06:03:03.172Z,13.10
2022-10-30T06:05:31.581Z,13.20
2022-10-30T06:07:58.650Z,13.20
2022-10-30T06:10:26.537Z,13.30
2022-10-30T06:12:58.355Z,13.30
2022-10-30T06:15:25.874Z,13.30
2022-10-30T06:17:53.047Z,13.30
2022-10-30T06:20:22.131Z,13.30
2022-10-30T06:23:06.263Z,13.30
2022-10-30T06:25:40.365Z,13.30
2022-10-30T06:28:07.751Z,13.40
2022-10-30T06:30:34.615Z,13.30
2022-10-30T06:33:03.419Z,13.20
2022-10-30T06:35:30.772Z,13.10
2022-10-30T06:38:00.188Z,12.60
2022-10-30T06:40:27.794Z,12.50
2022-10-30T06:45:23.713Z,13.00
2022-10-30T06:47:50.665Z,12.80
2022-10-30T06:50:20.156Z,12.70
2022-10-30T06:52:48.255Z,12.90
2022-10-30T07:00:10.269Z,13.40
2022-10-30T07:05:04.884Z,13.70
2022-10-30T07:07:31.772Z,13.70
2022-10-30T07:09:58.484Z,13.70
2022-10-30T07:14:52.396Z,14.40
2022-10-30T07:29:34.930Z,18.20
2022-10-30T07:34:30.820Z,18.90
2022-10-30T07:36:57.972Z,19.30
2022-10-30T07:39:24.964Z,19.30
2022-10-30T07:41:51.700Z,20.20
2022-10-30T07:46:45.636Z,20.90
2022-10-30T07:49:12.364Z,20.90
2022-10-30T07:54:06.237Z,21.00
2022-10-30T07:56:32.950Z,21.40
2022-10-30T07:58:59.679Z,22.10
2022-10-30T08:01:26.486Z,22.50
2022-10-30T08:03:53.332Z,23.00
2022-10-30T08:06:23.035Z,23.20
2022-10-30T08:08:53.110Z,23.70
2022-10-30T08:11:19.960Z,24.50
2022-10-30T08:13:46.931Z,24.60
2022-10-30T08:16:13.695Z,24.60
2022-10-30T08:18:42.535Z,24.60
2022-10-30T08:21:10.106Z,24.80
2022-10-30T08:23:37.057Z,25.10
2022-10-30T08:26:04.193Z,25.50
2022-10-30T08:28:32.914Z,25.60
2022-10-30T08:31:01.233Z,25.90
2022-10-30T08:33:28.417Z,26.10
2022-10-30T08:35:57.117Z,25.80
2022-10-30T08:38:24.143Z,25.40
2022-10-30T08:40:51.014Z,25.90
2022-10-30T08:43:17.913Z,26.40
2022-10-30T08:45:44.862Z,26.20
2022-10-30T08:48:13.898Z,26.20
2022-10-30T08:50:41.246Z,26.80
2022-10-30T08:53:13.691Z,27.70
2022-10-30T08:55:40.985Z,28.00
2022-10-30T08:58:07.840Z,28.30
2022-10-30T09:00:35.512Z,28.10
2022-10-30T09:03:02.920Z,27.80
2022-10-30T09:05:30.099Z,27.80
2022-10-30T09:08:01.697Z,27.10
2022-10-30T09:10:29.481Z,27.50
2022-10-30T09:12:57.834Z,27.00
2022-10-30T09:15:25.499Z,27.40
2022-10-30T09:18:00.136Z,26.20
2022-10-30T09:20:27.861Z,23.20
2022-10-30T09:22:55.324Z,22.90
2022-10-30T09:25:22.307Z,24.80
2022-10-30T09:27:49.156Z,24.90
2022-10-30T09:30:15.957Z,25.70
2022-10-30T09:32:42.672Z,27.00
2022-10-30T09:35:09.533Z,27.50
2022-10-30T09:37:37.528Z,28.30
2022-10-30T09:40:05.647Z,28.70
2022-10-30T09:42:50.989Z,29.10
2022-10-30T09:45:43.314Z,27.30
2022-10-30T09:48:30.494Z,26.90
2022-10-30T09:51:19.545Z,26.00
2022-10-30T09:54:05.467Z,26.90
2022-10-30T09:57:01.247Z,27.60
2022-10-30T09:59:29.185Z,28.00
2022-10-30T10:02:08.059Z,27.10
2022-10-30T10:04:43.380Z,26.20
2022-10-30T10:07:22.263Z,26.30
2022-10-30T10:09:53.460Z,26.10
2022-10-30T10:12:38.625Z,25.80
2022-10-30T10:15:31.055Z,27.00
2022-10-30T10:18:01.413Z,27.30
2022-10-30T10:20:37.045Z,27.40
2022-10-30T10:23:29.331Z,26.10
2022-10-30T10:26:00.389Z,26.10
2022-10-30T10:28:27.077Z,26.80
2022-10-30T10:31:04.932Z,26.50
2022-10-30T10:34:03.090Z,28.10
2022-10-30T10:36:46.479Z,28.90
2022-10-30T10:39:42.380Z,29.30
2022-10-30T10:42:52.686Z,29.30
2022-10-30T10:45:46.751Z,29.60
2022-10-30T10:48:34.452Z,29.30
2022-10-30T10:51:15.531Z,30.10
2022-10-30T10:53:53.011Z,30.80
2022-10-30T10:56:25.389Z,30.40
2022-10-30T10:58:58.115Z,29.60
2022-10-30T11:01:39.759Z,29.50
2022-10-30T11:04:24.226Z,30.60
2022-10-30T11:06:54.186Z,30.70
2022-10-30T11:09:22.972Z,31.50
2022-10-30T11:11:52.386Z,31.00
2022-10-30T11:14:23.838Z,29.60
2022-10-30T11:17:10.960Z,29.40
2022-10-30T11:19:37.759Z,28.50
2022-10-30T11:22:20.592Z,27.90
2022-10-30T11:24:47.384Z,27.60
2022-10-30T11:27:23.455Z,27.30
2022-10-30T11:30:01.886Z,27.20
2022-10-30T11:32:31.447Z,27.30
2022-10-30T11:35:10.137Z,27.90
2022-10-30T11:37:39.323Z,29.00
2022-10-30T11:40:12.160Z,29.60
2022-10-30T11:42:41.746Z,30.60
2022-10-30T11:45:26.689Z,29.50
2022-10-30T11:47:58.266Z,29.80
2022-10-30T11:50:30.704Z,29.00
2022-10-30T11:53:13.120Z,27.80
2022-10-30T11:55:46.048Z,27.80
2022-10-30T11:58:24.083Z,28.20
2022-10-30T12:01:06.908Z,26.80
2022-10-30T12:03:41.800Z,27.10
2022-10-30T12:06:20.472Z,26.70
2022-10-30T12:09:19.721Z,27.50
2022-10-30T12:11:47.191Z,27.30
2022-10-30T12:14:18.989Z,28.10
2022-10-30T12:16:56.935Z,27.10
2022-10-30T12:19:25.590Z,26.60
2022-10-30T12:21:54.491Z,26.50
2022-10-30T12:24:43.703Z,26.50
2022-10-30T12:27:19.676Z,26.50
2022-10-30T12:30:13.504Z,26.70
2022-10-30T12:33:06.197Z,26.40
2022-10-30T12:35:53.224Z,26.20
2022-10-30T12:38:46.492Z,25.60
2022-10-30T12:41:25.091Z,25.40
2022-10-30T12:43:59.528Z,25.60
2022-10-30T12:46:36.489Z,25.60
2022-10-30T12:49:15.234Z,25.70
2022-10-30T12:52:02.753Z,25.60
2022-10-30T12:54:48.051Z,25.00
2022-10-30T12:57:26.013Z,24.50
2022-10-30T13:00:07.521Z,24.00
2022-10-30T13:02:46.880Z,24.10
2022-10-30T13:05:23.019Z,24.10
2022-10-30T13:07:58.361Z,24.10
2022-10-30T13:10:34.191Z,24.30
2022-10-30T13:13:33.955Z,24.30
2022-10-30T13:16:06.553Z,24.20
2022-10-30T13:18:34.083Z,24.10
2022-10-30T13:21:04.264Z,24.20
2022-10-30T13:23:48.357Z,23.80
2022-10-30T13:26:39.892Z,23.70
2022-10-30T13:29:31.697Z,23.20
2022-10-30T13:32:40.638Z,22.70
2022-10-30T13:35:29.073Z,23.00
2022-10-30T13:37:59.053Z,22.50
2022-10-30T13:40:44.822Z,22.40
2022-10-30T13:43:29.875Z,22.70
2022-10-30T13:46:27.081Z,23.00
2022-10-30T13:49:06.230Z,23.20
2022-10-30T13:51:47.890Z,23.30
2022-10-30T13:54:28.519Z,23.30
2022-10-30T13:56:56.780Z,23.40
2022-10-30T13:59:36.844Z,23.50
2022-10-30T14:02:31.517Z,23.40
2022-10-30T14:05:12.890Z,23.10
2022-10-30T14:07:51.636Z,23.10
2022-10-30T14:10:48.137Z,23.00
2022-10-30T14:13:28.336Z,23.00
2022-10-30T14:16:04.557Z,23.00
2022-10-30T14:18:31.291Z,22.80
2022-10-30T14:21:11.001Z,22.60
2022-10-30T14:23:38.319Z,22.20
2022-10-30T14:26:12.715Z,22.10
2022-10-30T14:28:50.947Z,22.10
2022-10-30T14:31:20.070Z,22.00
2022-10-30T14:33:50.921Z,22.00
2022-10-30T14:36:20.590Z,21.90
2022-10-30T14:39:10.488Z,21.70
2022-10-30T14:42:05.108Z,21.70
2022-10-30T14:44:50.112Z,21.60
2022-10-30T14:47:33.359Z,21.60
2022-10-30T14:50:17.102Z,21.20
2022-10-30T14:52:59.824Z,21.20
2022-10-30T14:55:50.739Z,20.90
2022-10-30T14:58:29.413Z,20.70
2022-10-30T15:01:20.516Z,20.80
2022-10-30T15:04:22.421Z,20.60
2022-10-30T15:07:20.840Z,20.40
2022-10-30T15:10:06.793Z,20.10
2022-10-30T15:12:42.181Z,19.90
2022-10-30T15:15:15.280Z,19.70
2022-10-30T15:17:48.443Z,19.60
2022-10-30T15:20:24.847Z,19.80
2022-10-30T15:23:19.324Z,20.00
2022-10-30T15:25:52.341Z,20.20
2022-10-30T15:31:02.584Z,20.10
2022-10-30T15:33:37.803Z,20.00
2022-10-30T15:36:05.605Z,20.00
2022-10-30T15:38:32.661Z,19.90
2022-10-30T15:41:02.673Z,19.90
2022-10-30T15:43:35.553Z,19.80
2022-10-30T15:46:08.258Z,19.20
2022-10-30T15:48:35.892Z,19.20
2022-10-30T15:51:06.485Z,19.10
2022-10-30T15:53:33.139Z,19.10
2022-10-30T15:56:00.261Z,19.30
2022-10-30T15:58:27.464Z,19.30
2022-10-30T16:01:00.447Z,19.20
2022-10-30T16:03:28.542Z,19.10
2022-10-30T16:06:17.612Z,19.10
2022-10-30T16:08:46.830Z,19.00
2022-10-30T16:11:14.686Z,18.90
2022-10-30T16:13:42.528Z,18.90
2022-10-30T16:16:17.225Z,18.70
2022-10-30T16:18:44.530Z,18.60
2022-10-30T16:21:16.453Z,18.50
2022-10-30T16:23:50.291Z,18.40
2022-10-30T16:26:37.785Z,18.20
2022-10-30T16:29:21.196Z,18.00
2022-10-30T16:31:50.119Z,17.90
2022-10-30T16:34:26.454Z,17.60
2022-10-30T16:36:54.444Z,17.70
2022-10-30T16:39:21.971Z,17.70
2022-10-30T16:41:49.133Z,17.60
2022-10-30T16:44:33.528Z,17.40
2022-10-30T16:47:00.290Z,17.50
2022-10-30T16:49:31.376Z,17.40
2022-10-30T16:52:02.305Z,17.40
2022-10-30T16:54:36.553Z,17.30
2022-10-30T16:57:07.637Z,17.10
2022-10-30T16:59:38.941Z,16.90
2022-10-30T17:02:18.820Z,16.90
2022-10-30T17:04:52.466Z,17.20
2022-10-30T17:07:25.446Z,17.10
2022-10-30T17:09:55.609Z,16.90
2022-10-30T17:12:27.698Z,17.00
2022-10-30T17:15:13.075Z,16.90
2022-10-30T17:17:41.823Z,16.90
2022-10-30T17:20:21.831Z,16.90
2022-10-30T17:23:06.142Z,16.90
2022-10-30T17:25:38.583Z,16.80
2022-10-30T17:28:05.821Z,16.70
2022-10-30T17:30:35.411Z,16.60
2022-10-30T17:33:22.207Z,16.60
2022-10-30T17:35:49.432Z,16.70
2022-10-30T17:38:16.495Z,16.70
2022-10-30T17:40:43.468Z,16.70
2022-10-30T17:43:17.021Z,16.60
2022-10-30T17:45:44.467Z,16.40
2022-10-30T17:48:16.632Z,16.30
2022-10-30T17:50:44.652Z,16.30
2022-10-30T17:53:21.864Z,16.20
2022-10-30T17:55:59.698Z,16.10
2022-10-30T17:58:26.451Z,16.10
2022-10-30T18:00:53.273Z,16.10
2022-10-30T18:03:20.150Z,16.10
2022-10-30T18:05:47.567Z,16.00
2022-10-30T18:08:14.320Z,16.00
2022-10-30T18:13:11.906Z,16.00
2022-10-30T18:15:41.224Z,16.00
2022-10-30T18:20:35.441Z,16.10
2022-10-30T18:23:02.689Z,16.10
2022-10-30T18:25:35.867Z,15.90
2022-10-30T18:28:02.990Z,16.00
2022-10-30T18:35:31.399Z,15.60
2022-10-30T18:40:26.299Z,15.40
2022-10-30T18:45:29.631Z,15.50
2022-10-30T18:47:58.060Z,15.50
2022-10-30T18:50:25.287Z,15.40
2022-10-30T18:57:47.008Z,15.40
2022-10-30T19:00:16.463Z,15.20
2022-10-30T19:05:32.305Z,15.10
2022-10-30T19:08:01.463Z,15.10
2022-10-30T19:10:30.629Z,15.10
2022-10-30T19:13:15.566Z,15.10
2022-10-30T19:15:46.339Z,15.10
2022-10-30T19:18:13.943Z,14.80
2022-10-30T19:21:03.335Z,15.00
2022-10-30T19:30:50.491Z,14.60
2022-10-30T19:33:18.945Z,14.70
2022-10-30T19:35:46.411Z,14.70
2022-10-30T19:40:41.266Z,14.80
2022-10-30T19:48:24.855Z,14.90
2022-10-30T20:10:50.528Z,14.50
2022-10-30T20:13:17.892Z,14.70
2022-10-30T20:16:16.899Z,14.70
2022-10-30T20:23:52.640Z,14.40
2022-10-30T20:26:28.161Z,14.10
2022-10-30T20:28:55.508Z,14.10
2022-10-30T20:31:22.437Z,14.20
2022-10-30T20:41:23.494Z,14.20
2022-10-30T20:43:50.596Z,14.30
2022-10-30T20:46:18.286Z,14.50
2022-10-30T20:51:14.496Z,14.60
2022-10-30T20:53:41.417Z,14.70
2022-10-30T20:56:08.274Z,14.70
2022-10-30T20:58:35.174Z,14.70
2022-10-30T21:05:58.640Z,14.90
2022-10-30T21:08:26.663Z,15.00
2022-10-30T21:14:47.534Z,14.70
2022-10-30T21:17:14.689Z,14.60
2022-10-30T21:22:11.716Z,14.50
2022-10-30T21:24:38.859Z,14.50
2022-10-30T21:27:06.184Z,14.50
2022-10-30T21:29:35.143Z,14.50
2022-10-30T21:36:56.362Z,14.00
2022-10-30T21:41:50.324Z,13.90
2022-10-30T21:46:44.228Z,14.10
2022-10-30T21:49:17.893Z,14.20
2022-10-30T21:51:45.624Z,14.10
2022-10-30T21:54:12.604Z,13.80
2022-10-30T22:01:36.208Z,14.10
2022-10-30T23:00:54.624Z,13.50
2022-10-30T23:03:21.332Z,13.70
2022-10-30T23:05:59.443Z,13.80
2022-10-30T23:08:26.791Z,13.80
2022-10-30T23:10:54.394Z,13.80
2022-10-30T23:15:48.865Z,13.70
2022-10-30T23:18:16.103Z,13.70
2022-10-30T23:20:44.158Z,13.70
2022-10-30T23:23:11.026Z,13.70
2022-10-30T23:25:38.306Z,13.70
2022-10-30T23:28:09.890Z,13.70
2022-10-30T23:30:37.654Z,13.70
2022-10-30T23:33:04.942Z,13.70
2022-10-30T23:37:58.780Z,13.70
2022-10-30T23:42:55.797Z,13.30
2022-10-30T23:45:22.988Z,13.30
2022-10-30T23:47:49.714Z,13.40
2022-10-30T23:50:16.567Z,13.40
2022-10-30T23:52:43.355Z,13.50
2022-10-30T23:55:10.352Z,13.60
2022-10-30T23:57:37.119Z,13.60
